sensor_id;sensor_type;location;lat;lon;timestamp;P1;durP1;ratioP1;P2;durP2;ratioP2
22240;SDS011;11289;52.524;13.694;2023-02-02T00:00:41;14.30;;;2.53;;
22240;SDS011;11289;52.524;13.694;2023-02-02T00:03:06;9.85;;;1.75;;
22240;SDS011;11289;52.524;13.694;2023-02-02T00:05:32;9.02;;;1.63;;
22240;SDS011;11289;52.524;13.694;2023-02-02T00:07:58;14.48;;;2.63;;
22240;SDS011;11289;52.524;13.694;2023-02-02T00:10:23;11.18;;;2.13;;
22240;SDS011;11289;52.524;13.694;2023-02-02T00:12:49;10.68;;;2.28;;
22240;SDS011;11289;52.524;13.694;2023-02-02T00:15:14;8.70;;;2.13;;
22240;SDS011;11289;52.524;13.694;2023-02-02T00:17:39;13.45;;;2.58;;
22240;SDS011;11289;52.524;13.694;2023-02-02T00:20:05;11.82;;;2.67;;
22240;SDS011;11289;52.524;13.694;2023-02-02T00:22:31;17.50;;;3.25;;
22240;SDS011;11289;52.524;13.694;2023-02-02T00:24:56;15.05;;;1.90;;
22240;SDS011;11289;52.524;13.694;2023-02-02T00:27:21;15.82;;;2.03;;
22240;SDS011;11289;52.524;13.694;2023-02-02T00:29:47;18.67;;;3.33;;
22240;SDS011;11289;52.524;13.694;2023-02-02T00:32:13;18.08;;;3.22;;
22240;SDS011;11289;52.524;13.694;2023-02-02T00:34:38;15.30;;;2.40;;
22240;SDS011;11289;52.524;13.694;2023-02-02T00:37:04;8.18;;;1.95;;
22240;SDS011;11289;52.524;13.694;2023-02-02T00:39:29;12.93;;;1.90;;
22240;SDS011;11289;52.524;13.694;2023-02-02T00:41:54;13.73;;;1.98;;
22240;SDS011;11289;52.524;13.694;2023-02-02T00:44:20;12.60;;;2.38;;
22240;SDS011;11289;52.524;13.694;2023-02-02T00:47:04;8.10;;;2.03;;
22240;SDS011;11289;52.524;13.694;2023-02-02T00:49:29;11.95;;;2.15;;
22240;SDS011;11289;52.524;13.694;2023-02-02T00:51:55;13.38;;;2.65;;
22240;SDS011;11289;52.524;13.694;2023-02-02T00:54:20;11.25;;;2.13;;
22240;SDS011;11289;52.524;13.694;2023-02-02T00:56:46;12.65;;;2.13;;
22240;SDS011;11289;52.524;13.694;2023-02-02T00:59:11;13.57;;;3.15;;
22240;SDS011;11289;52.524;13.694;2023-02-02T01:01:37;16.60;;;2.58;;
22240;SDS011;11289;52.524;13.694;2023-02-02T01:04:02;10.57;;;2.10;;
22240;SDS011;11289;52.524;13.694;2023-02-02T01:06:28;11.50;;;2.25;;
22240;SDS011;11289;52.524;13.694;2023-02-02T01:08:53;11.57;;;1.85;;
22240;SDS011;11289;52.524;13.694;2023-02-02T01:11:18;14.20;;;2.47;;
22240;SDS011;11289;52.524;13.694;2023-02-02T01:13:44;15.40;;;2.60;;
22240;SDS011;11289;52.524;13.694;2023-02-02T01:16:10;15.55;;;1.70;;
22240;SDS011;11289;52.524;13.694;2023-02-02T01:18:35;15.40;;;1.90;;
22240;SDS011;11289;52.524;13.694;2023-02-02T01:21:02;8.80;;;1.60;;
22240;SDS011;11289;52.524;13.694;2023-02-02T01:23:30;13.88;;;2.80;;
22240;SDS011;11289;52.524;13.694;2023-02-02T01:25:56;12.98;;;2.00;;
22240;SDS011;11289;52.524;13.694;2023-02-02T01:28:23;13.43;;;1.90;;
22240;SDS011;11289;52.524;13.694;2023-02-02T01:30:49;15.57;;;1.98;;
22240;SDS011;11289;52.524;13.694;2023-02-02T01:33:15;14.82;;;2.13;;
22240;SDS011;11289;52.524;13.694;2023-02-02T01:35:45;13.52;;;2.40;;
22240;SDS011;11289;52.524;13.694;2023-02-02T01:38:18;12.95;;;2.45;;
22240;SDS011;11289;52.524;13.694;2023-02-02T01:40:45;10.07;;;2.03;;
22240;SDS011;11289;52.524;13.694;2023-02-02T01:43:47;13.07;;;2.17;;
22240;SDS011;11289;52.524;13.694;2023-02-02T01:46:17;12.55;;;2.20;;
22240;SDS011;11289;52.524;13.694;2023-02-02T01:48:51;10.75;;;1.70;;
22240;SDS011;11289;52.524;13.694;2023-02-02T01:51:21;8.20;;;1.55;;
22240;SDS011;11289;52.524;13.694;2023-02-02T01:53:50;13.40;;;1.95;;
22240;SDS011;11289;52.524;13.694;2023-02-02T01:56:22;14.50;;;2.40;;
22240;SDS011;11289;52.524;13.694;2023-02-02T02:01:16;12.60;;;1.63;;
22240;SDS011;11289;52.524;13.694;2023-02-02T02:03:42;9.85;;;2.17;;
22240;SDS011;11289;52.524;13.694;2023-02-02T02:06:09;10.90;;;1.85;;
22240;SDS011;11289;52.524;13.694;2023-02-02T02:08:38;19.13;;;1.92;;
22240;SDS011;11289;52.524;13.694;2023-02-02T02:11:08;14.73;;;1.70;;
22240;SDS011;11289;52.524;13.694;2023-02-02T02:13:34;10.15;;;2.17;;
22240;SDS011;11289;52.524;13.694;2023-02-02T02:22:00;16.60;;;2.20;;
22240;SDS011;11289;52.524;13.694;2023-02-02T02:28:08;12.73;;;2.83;;
22240;SDS011;11289;52.524;13.694;2023-02-02T02:31:09;11.27;;;1.95;;
22240;SDS011;11289;52.524;13.694;2023-02-02T02:37:06;15.50;;;2.10;;
22240;SDS011;11289;52.524;13.694;2023-02-02T02:42:05;10.32;;;2.25;;
22240;SDS011;11289;52.524;13.694;2023-02-02T02:44:35;15.93;;;2.37;;
22240;SDS011;11289;52.524;13.694;2023-02-02T02:47:01;19.33;;;2.83;;
22240;SDS011;11289;52.524;13.694;2023-02-02T02:49:27;18.00;;;2.30;;
22240;SDS011;11289;52.524;13.694;2023-02-02T02:51:53;18.35;;;2.50;;
22240;SDS011;11289;52.524;13.694;2023-02-02T03:00:17;12.18;;;1.77;;
22240;SDS011;11289;52.524;13.694;2023-02-02T03:02:49;12.90;;;2.80;;
22240;SDS011;11289;52.524;13.694;2023-02-02T03:07:47;14.05;;;2.10;;
22240;SDS011;11289;52.524;13.694;2023-02-02T03:12:47;9.85;;;2.28;;
22240;SDS011;11289;52.524;13.694;2023-02-02T03:15:15;12.50;;;1.70;;
22240;SDS011;11289;52.524;13.694;2023-02-02T03:17:41;14.75;;;2.30;;
22240;SDS011;11289;52.524;13.694;2023-02-02T03:20:09;12.10;;;2.30;;
22240;SDS011;11289;52.524;13.694;2023-02-02T03:22:38;10.88;;;1.95;;
22240;SDS011;11289;52.524;13.694;2023-02-02T03:25:04;11.23;;;2.05;;
22240;SDS011;11289;52.524;13.694;2023-02-02T03:27:31;12.75;;;2.47;;
22240;SDS011;11289;52.524;13.694;2023-02-02T03:30:03;8.35;;;2.47;;
22240;SDS011;11289;52.524;13.694;2023-02-02T03:32:31;11.45;;;2.22;;
22240;SDS011;11289;52.524;13.694;2023-02-02T03:34:58;7.82;;;2.03;;
22240;SDS011;11289;52.524;13.694;2023-02-02T03:37:23;14.77;;;2.30;;
22240;SDS011;11289;52.524;13.694;2023-02-02T03:39:48;9.85;;;1.85;;
22240;SDS011;11289;52.524;13.694;2023-02-02T03:42:14;10.63;;;1.80;;
22240;SDS011;11289;52.524;13.694;2023-02-02T03:44:39;8.85;;;1.63;;
22240;SDS011;11289;52.524;13.694;2023-02-02T03:47:07;6.15;;;1.45;;
22240;SDS011;11289;52.524;13.694;2023-02-02T03:49:32;11.25;;;1.70;;
22240;SDS011;11289;52.524;13.694;2023-02-02T03:51:57;11.48;;;1.70;;
22240;SDS011;11289;52.524;13.694;2023-02-02T03:54:23;16.10;;;1.95;;
22240;SDS011;11289;52.524;13.694;2023-02-02T03:56:48;12.10;;;1.63;;
22240;SDS011;11289;52.524;13.694;2023-02-02T03:59:14;8.43;;;1.48;;
22240;SDS011;11289;52.524;13.694;2023-02-02T04:01:39;11.77;;;1.67;;
22240;SDS011;11289;52.524;13.694;2023-02-02T04:04:04;9.77;;;1.63;;
22240;SDS011;11289;52.524;13.694;2023-02-02T04:06:30;12.20;;;1.90;;
22240;SDS011;11289;52.524;13.694;2023-02-02T04:08:55;7.18;;;1.30;;
22240;SDS011;11289;52.524;13.694;2023-02-02T04:11:21;13.68;;;1.92;;
22240;SDS011;11289;52.524;13.694;2023-02-02T04:13:46;13.23;;;1.70;;
22240;SDS011;11289;52.524;13.694;2023-02-02T04:16:11;13.80;;;2.00;;
22240;SDS011;11289;52.524;13.694;2023-02-02T04:18:37;10.55;;;1.60;;
22240;SDS011;11289;52.524;13.694;2023-02-02T04:21:03;8.88;;;1.67;;
22240;SDS011;11289;52.524;13.694;2023-02-02T04:23:30;9.38;;;2.33;;
22240;SDS011;11289;52.524;13.694;2023-02-02T04:25:56;12.07;;;1.63;;
22240;SDS011;11289;52.524;13.694;2023-02-02T04:28:22;10.18;;;1.50;;
22240;SDS011;11289;52.524;13.694;2023-02-02T04:30:48;11.07;;;1.48;;
22240;SDS011;11289;52.524;13.694;2023-02-02T04:33:16;11.68;;;1.85;;
22240;SDS011;11289;52.524;13.694;2023-02-02T04:35:42;11.90;;;2.00;;
22240;SDS011;11289;52.524;13.694;2023-02-02T04:38:07;12.52;;;1.73;;
22240;SDS011;11289;52.524;13.694;2023-02-02T04:40:33;11.00;;;2.00;;
22240;SDS011;11289;52.524;13.694;2023-02-02T04:43:01;12.30;;;1.77;;
22240;SDS011;11289;52.524;13.694;2023-02-02T04:45:27;10.48;;;1.75;;
22240;SDS011;11289;52.524;13.694;2023-02-02T04:47:52;8.65;;;1.77;;
22240;SDS011;11289;52.524;13.694;2023-02-02T04:50:18;12.18;;;1.65;;
22240;SDS011;11289;52.524;13.694;2023-02-02T04:52:43;7.40;;;1.60;;
22240;SDS011;11289;52.524;13.694;2023-02-02T04:55:08;7.25;;;1.85;;
22240;SDS011;11289;52.524;13.694;2023-02-02T04:57:34;10.35;;;1.70;;
22240;SDS011;11289;52.524;13.694;2023-02-02T04:59:59;16.35;;;1.58;;
22240;SDS011;11289;52.524;13.694;2023-02-02T05:02:24;6.78;;;1.35;;
22240;SDS011;11289;52.524;13.694;2023-02-02T05:04:50;5.65;;;1.38;;
22240;SDS011;11289;52.524;13.694;2023-02-02T05:07:15;10.90;;;1.83;;
22240;SDS011;11289;52.524;13.694;2023-02-02T05:09:40;11.18;;;1.73;;
22240;SDS011;11289;52.524;13.694;2023-02-02T05:12:06;8.50;;;1.85;;
22240;SDS011;11289;52.524;13.694;2023-02-02T05:14:31;8.52;;;1.60;;
22240;SDS011;11289;52.524;13.694;2023-02-02T05:16:57;10.65;;;1.80;;
22240;SDS011;11289;52.524;13.694;2023-02-02T05:19:22;17.10;;;1.90;;
22240;SDS011;11289;52.524;13.694;2023-02-02T05:21:47;9.60;;;2.17;;
22240;SDS011;11289;52.524;13.694;2023-02-02T05:24:14;10.88;;;1.98;;
22240;SDS011;11289;52.524;13.694;2023-02-02T05:26:39;7.13;;;1.20;;
22240;SDS011;11289;52.524;13.694;2023-02-02T05:29:04;11.52;;;1.80;;
22240;SDS011;11289;52.524;13.694;2023-02-02T05:31:30;20.15;;;2.63;;
22240;SDS011;11289;52.524;13.694;2023-02-02T05:33:56;11.45;;;2.10;;
22240;SDS011;11289;52.524;13.694;2023-02-02T05:36:22;10.98;;;2.08;;
22240;SDS011;11289;52.524;13.694;2023-02-02T05:38:48;7.80;;;1.63;;
22240;SDS011;11289;52.524;13.694;2023-02-02T05:41:13;12.15;;;1.55;;
22240;SDS011;11289;52.524;13.694;2023-02-02T05:43:39;9.18;;;1.85;;
22240;SDS011;11289;52.524;13.694;2023-02-02T05:46:04;16.05;;;1.92;;
22240;SDS011;11289;52.524;13.694;2023-02-02T05:48:29;10.80;;;1.73;;
22240;SDS011;11289;52.524;13.694;2023-02-02T05:50:56;11.40;;;2.00;;
22240;SDS011;11289;52.524;13.694;2023-02-02T05:53:30;7.03;;;1.40;;
22240;SDS011;11289;52.524;13.694;2023-02-02T05:55:56;10.48;;;1.73;;
22240;SDS011;11289;52.524;13.694;2023-02-02T05:58:21;8.30;;;1.73;;
22240;SDS011;11289;52.524;13.694;2023-02-02T06:00:47;18.60;;;1.80;;
22240;SDS011;11289;52.524;13.694;2023-02-02T06:03:12;15.23;;;2.35;;
22240;SDS011;11289;52.524;13.694;2023-02-02T06:05:38;8.32;;;1.70;;
22240;SDS011;11289;52.524;13.694;2023-02-02T06:08:03;9.82;;;1.40;;
22240;SDS011;11289;52.524;13.694;2023-02-02T06:10:29;13.25;;;1.70;;
22240;SDS011;11289;52.524;13.694;2023-02-02T06:12:55;11.63;;;1.33;;
22240;SDS011;11289;52.524;13.694;2023-02-02T06:15:23;12.30;;;1.52;;
22240;SDS011;11289;52.524;13.694;2023-02-02T06:17:51;10.82;;;1.88;;
22240;SDS011;11289;52.524;13.694;2023-02-02T06:20:16;10.50;;;1.35;;
22240;SDS011;11289;52.524;13.694;2023-02-02T06:22:42;15.10;;;1.75;;
22240;SDS011;11289;52.524;13.694;2023-02-02T06:25:08;7.68;;;1.38;;
22240;SDS011;11289;52.524;13.694;2023-02-02T06:27:33;14.55;;;1.52;;
22240;SDS011;11289;52.524;13.694;2023-02-02T06:29:58;6.75;;;1.40;;
22240;SDS011;11289;52.524;13.694;2023-02-02T06:32:24;7.15;;;1.48;;
22240;SDS011;11289;52.524;13.694;2023-02-02T06:34:49;9.43;;;1.48;;
22240;SDS011;11289;52.524;13.694;2023-02-02T06:37:15;12.90;;;1.42;;
22240;SDS011;11289;52.524;13.694;2023-02-02T06:39:40;9.30;;;1.40;;
22240;SDS011;11289;52.524;13.694;2023-02-02T06:42:05;11.40;;;1.60;;
22240;SDS011;11289;52.524;13.694;2023-02-02T06:44:31;12.10;;;2.35;;
22240;SDS011;11289;52.524;13.694;2023-02-02T06:46:56;16.42;;;2.03;;
22240;SDS011;11289;52.524;13.694;2023-02-02T06:49:21;7.30;;;1.70;;
22240;SDS011;11289;52.524;13.694;2023-02-02T06:51:47;14.32;;;1.90;;
22240;SDS011;11289;52.524;13.694;2023-02-02T06:54:12;11.95;;;2.20;;
22240;SDS011;11289;52.524;13.694;2023-02-02T06:56:38;14.43;;;1.77;;
22240;SDS011;11289;52.524;13.694;2023-02-02T06:59:04;12.77;;;2.28;;
22240;SDS011;11289;52.524;13.694;2023-02-02T07:01:30;7.60;;;1.42;;
22240;SDS011;11289;52.524;13.694;2023-02-02T07:03:55;14.90;;;1.75;;
22240;SDS011;11289;52.524;13.694;2023-02-02T07:06:22;9.27;;;1.42;;
22240;SDS011;11289;52.524;13.694;2023-02-02T07:08:49;13.68;;;2.13;;
22240;SDS011;11289;52.524;13.694;2023-02-02T07:11:16;10.98;;;1.67;;
22240;SDS011;11289;52.524;13.694;2023-02-02T07:13:45;19.77;;;2.38;;
22240;SDS011;11289;52.524;13.694;2023-02-02T07:16:12;10.73;;;1.67;;
22240;SDS011;11289;52.524;13.694;2023-02-02T07:18:38;11.68;;;1.75;;
22240;SDS011;11289;52.524;13.694;2023-02-02T07:21:04;13.40;;;1.48;;
22240;SDS011;11289;52.524;13.694;2023-02-02T07:23:31;7.57;;;1.63;;
22240;SDS011;11289;52.524;13.694;2023-02-02T07:26:01;8.13;;;1.80;;
22240;SDS011;11289;52.524;13.694;2023-02-02T07:28:31;8.65;;;1.27;;
22240;SDS011;11289;52.524;13.694;2023-02-02T07:30:57;12.82;;;1.92;;
22240;SDS011;11289;52.524;13.694;2023-02-02T07:33:23;9.80;;;1.63;;
22240;SDS011;11289;52.524;13.694;2023-02-02T07:35:48;12.38;;;1.75;;
22240;SDS011;11289;52.524;13.694;2023-02-02T07:38:14;9.68;;;1.67;;
22240;SDS011;11289;52.524;13.694;2023-02-02T07:40:39;8.60;;;1.63;;
22240;SDS011;11289;52.524;13.694;2023-02-02T07:43:04;11.10;;;1.90;;
22240;SDS011;11289;52.524;13.694;2023-02-02T07:45:30;8.10;;;1.65;;
22240;SDS011;11289;52.524;13.694;2023-02-02T07:47:56;7.40;;;1.60;;
22240;SDS011;11289;52.524;13.694;2023-02-02T07:50:25;10.30;;;1.80;;
22240;SDS011;11289;52.524;13.694;2023-02-02T07:52:51;8.50;;;1.67;;
22240;SDS011;11289;52.524;13.694;2023-02-02T07:55:17;9.68;;;2.08;;
22240;SDS011;11289;52.524;13.694;2023-02-02T07:57:43;10.73;;;1.67;;
22240;SDS011;11289;52.524;13.694;2023-02-02T08:00:09;10.63;;;1.98;;
22240;SDS011;11289;52.524;13.694;2023-02-02T08:02:35;10.57;;;1.20;;
22240;SDS011;11289;52.524;13.694;2023-02-02T08:05:01;12.40;;;1.60;;
22240;SDS011;11289;52.524;13.694;2023-02-02T08:07:26;12.63;;;1.52;;
22240;SDS011;11289;52.524;13.694;2023-02-02T08:09:52;9.52;;;1.90;;
22240;SDS011;11289;52.524;13.694;2023-02-02T08:12:17;8.30;;;1.33;;
22240;SDS011;11289;52.524;13.694;2023-02-02T08:14:45;8.30;;;2.28;;
22240;SDS011;11289;52.524;13.694;2023-02-02T08:17:10;7.60;;;1.88;;
22240;SDS011;11289;52.524;13.694;2023-02-02T08:19:36;4.40;;;1.10;;
22240;SDS011;11289;52.524;13.694;2023-02-02T08:22:01;9.07;;;1.60;;
22240;SDS011;11289;52.524;13.694;2023-02-02T08:24:27;10.35;;;1.20;;
22240;SDS011;11289;52.524;13.694;2023-02-02T08:26:52;11.10;;;1.73;;
22240;SDS011;11289;52.524;13.694;2023-02-02T08:29:17;10.20;;;1.35;;
22240;SDS011;11289;52.524;13.694;2023-02-02T08:31:43;9.77;;;1.42;;
22240;SDS011;11289;52.524;13.694;2023-02-02T08:34:09;4.93;;;1.00;;
22240;SDS011;11289;52.524;13.694;2023-02-02T08:36:36;10.23;;;1.55;;
22240;SDS011;11289;52.524;13.694;2023-02-02T08:39:09;10.05;;;1.45;;
22240;SDS011;11289;52.524;13.694;2023-02-02T08:41:36;8.93;;;1.83;;
22240;SDS011;11289;52.524;13.694;2023-02-02T08:44:06;9.50;;;1.38;;
22240;SDS011;11289;52.524;13.694;2023-02-02T08:46:32;11.05;;;1.23;;
22240;SDS011;11289;52.524;13.694;2023-02-02T08:48:58;11.85;;;2.05;;
22240;SDS011;11289;52.524;13.694;2023-02-02T08:51:23;10.88;;;1.67;;
22240;SDS011;11289;52.524;13.694;2023-02-02T08:53:48;11.63;;;1.80;;
22240;SDS011;11289;52.524;13.694;2023-02-02T08:56:15;10.70;;;2.00;;
22240;SDS011;11289;52.524;13.694;2023-02-02T08:58:52;10.98;;;1.70;;
22240;SDS011;11289;52.524;13.694;2023-02-02T09:01:20;10.55;;;1.40;;
22240;SDS011;11289;52.524;13.694;2023-02-02T09:03:53;16.10;;;1.85;;
22240;SDS011;11289;52.524;13.694;2023-02-02T09:06:20;12.73;;;2.72;;
22240;SDS011;11289;52.524;13.694;2023-02-02T09:08:46;10.50;;;2.05;;
22240;SDS011;11289;52.524;13.694;2023-02-02T09:11:13;14.40;;;1.85;;
22240;SDS011;11289;52.524;13.694;2023-02-02T09:13:41;9.88;;;1.73;;
22240;SDS011;11289;52.524;13.694;2023-02-02T09:16:11;8.10;;;1.50;;
22240;SDS011;11289;52.524;13.694;2023-02-02T09:18:38;9.85;;;1.63;;
22240;SDS011;11289;52.524;13.694;2023-02-02T09:21:05;8.68;;;2.10;;
22240;SDS011;11289;52.524;13.694;2023-02-02T09:23:34;10.88;;;1.63;;
22240;SDS011;11289;52.524;13.694;2023-02-02T09:26:07;15.88;;;1.70;;
22240;SDS011;11289;52.524;13.694;2023-02-02T09:28:35;10.05;;;1.45;;
22240;SDS011;11289;52.524;13.694;2023-02-02T09:31:01;7.88;;;1.65;;
22240;SDS011;11289;52.524;13.694;2023-02-02T09:33:26;12.65;;;2.13;;
22240;SDS011;11289;52.524;13.694;2023-02-02T09:35:52;11.57;;;1.52;;
22240;SDS011;11289;52.524;13.694;2023-02-02T09:38:17;11.30;;;1.45;;
22240;SDS011;11289;52.524;13.694;2023-02-02T09:40:42;10.38;;;1.85;;
22240;SDS011;11289;52.524;13.694;2023-02-02T09:43:27;10.88;;;1.33;;
22240;SDS011;11289;52.524;13.694;2023-02-02T09:46:22;11.55;;;1.65;;
22240;SDS011;11289;52.524;13.694;2023-02-02T09:48:52;10.15;;;1.92;;
22240;SDS011;11289;52.524;13.694;2023-02-02T09:51:27;14.63;;;2.00;;
22240;SDS011;11289;52.524;13.694;2023-02-02T09:54:04;9.68;;;2.00;;
22240;SDS011;11289;52.524;13.694;2023-02-02T09:56:40;10.13;;;1.38;;
22240;SDS011;11289;52.524;13.694;2023-02-02T09:59:15;10.07;;;1.52;;
22240;SDS011;11289;52.524;13.694;2023-02-02T10:01:44;9.73;;;1.63;;
22240;SDS011;11289;52.524;13.694;2023-02-02T10:04:15;9.23;;;1.63;;
22240;SDS011;11289;52.524;13.694;2023-02-02T10:06:46;9.53;;;1.50;;
22240;SDS011;11289;52.524;13.694;2023-02-02T10:15:07;7.05;;;1.13;;
22240;SDS011;11289;52.524;13.694;2023-02-02T10:17:50;9.85;;;1.35;;
22240;SDS011;11289;52.524;13.694;2023-02-02T10:20:24;8.57;;;1.80;;
22240;SDS011;11289;52.524;13.694;2023-02-02T10:23:13;5.82;;;1.48;;
22240;SDS011;11289;52.524;13.694;2023-02-02T10:25:46;8.20;;;1.33;;
22240;SDS011;11289;52.524;13.694;2023-02-02T10:36:55;6.90;;;1.08;;
22240;SDS011;11289;52.524;13.694;2023-02-02T10:45:38;3.22;;;1.20;;
22240;SDS011;11289;52.524;13.694;2023-02-02T10:48:14;4.65;;;1.33;;
22240;SDS011;11289;52.524;13.694;2023-02-02T10:50:42;4.78;;;1.10;;
22240;SDS011;11289;52.524;13.694;2023-02-02T10:53:14;7.73;;;1.20;;
22240;SDS011;11289;52.524;13.694;2023-02-02T10:58:37;8.40;;;1.10;;
22240;SDS011;11289;52.524;13.694;2023-02-02T11:01:10;7.75;;;1.73;;
22240;SDS011;11289;52.524;13.694;2023-02-02T11:03:35;9.98;;;1.08;;
22240;SDS011;11289;52.524;13.694;2023-02-02T11:06:03;5.80;;;1.08;;
22240;SDS011;11289;52.524;13.694;2023-02-02T11:08:49;5.38;;;1.63;;
22240;SDS011;11289;52.524;13.694;2023-02-02T11:14:03;6.88;;;1.00;;
22240;SDS011;11289;52.524;13.694;2023-02-02T11:16:34;7.45;;;1.10;;
22240;SDS011;11289;52.524;13.694;2023-02-02T11:19:06;11.38;;;1.63;;
22240;SDS011;11289;52.524;13.694;2023-02-02T11:21:51;8.73;;;1.77;;
22240;SDS011;11289;52.524;13.694;2023-02-02T11:37:29;3.10;;;1.10;;
22240;SDS011;11289;52.524;13.694;2023-02-02T11:40:58;7.50;;;1.10;;
22240;SDS011;11289;52.524;13.694;2023-02-02T11:42:56;7.68;;;1.25;;
22240;SDS011;11289;52.524;13.694;2023-02-02T11:45:37;2.65;;;1.20;;
22240;SDS011;11289;52.524;13.694;2023-02-02T11:50:37;8.48;;;0.88;;
22240;SDS011;11289;52.524;13.694;2023-02-02T11:53:02;8.27;;;1.25;;
22240;SDS011;11289;52.524;13.694;2023-02-02T11:55:29;7.47;;;0.90;;
22240;SDS011;11289;52.524;13.694;2023-02-02T12:00:46;3.80;;;0.90;;
22240;SDS011;11289;52.524;13.694;2023-02-02T12:03:26;3.13;;;0.98;;
22240;SDS011;11289;52.524;13.694;2023-02-02T12:05:52;9.57;;;1.52;;
22240;SDS011;11289;52.524;13.694;2023-02-02T12:08:17;6.25;;;1.20;;
22240;SDS011;11289;52.524;13.694;2023-02-02T12:10:49;6.25;;;1.42;;
22240;SDS011;11289;52.524;13.694;2023-02-02T12:19:15;5.75;;;1.13;;
22240;SDS011;11289;52.524;13.694;2023-02-02T12:35:00;5.50;;;1.40;;
22240;SDS011;11289;52.524;13.694;2023-02-02T12:37:52;3.78;;;1.10;;
22240;SDS011;11289;52.524;13.694;2023-02-02T12:45:50;3.50;;;0.88;;
22240;SDS011;11289;52.524;13.694;2023-02-02T12:51:00;5.68;;;1.08;;
22240;SDS011;11289;52.524;13.694;2023-02-02T12:57:08;6.28;;;1.00;;
22240;SDS011;11289;52.524;13.694;2023-02-02T13:07:51;7.85;;;1.70;;
22240;SDS011;11289;52.524;13.694;2023-02-02T13:10:32;6.00;;;1.20;;
22240;SDS011;11289;52.524;13.694;2023-02-02T13:15:37;5.57;;;1.45;;
22240;SDS011;11289;52.524;13.694;2023-02-02T13:18:13;6.28;;;1.20;;
22240;SDS011;11289;52.524;13.694;2023-02-02T13:20:51;5.97;;;1.13;;
22240;SDS011;11289;52.524;13.694;2023-02-02T13:23:23;6.90;;;1.20;;
22240;SDS011;11289;52.524;13.694;2023-02-02T13:25:54;4.57;;;1.50;;
22240;SDS011;11289;52.524;13.694;2023-02-02T13:31:12;8.57;;;1.23;;
22240;SDS011;11289;52.524;13.694;2023-02-02T13:33:43;5.68;;;1.08;;
22240;SDS011;11289;52.524;13.694;2023-02-02T13:36:20;4.05;;;0.90;;
22240;SDS011;11289;52.524;13.694;2023-02-02T13:38:53;4.03;;;1.10;;
22240;SDS011;11289;52.524;13.694;2023-02-02T13:41:21;2.95;;;1.13;;
22240;SDS011;11289;52.524;13.694;2023-02-02T13:57:18;6.38;;;0.85;;
22240;SDS011;11289;52.524;13.694;2023-02-02T14:02:46;3.15;;;0.80;;
22240;SDS011;11289;52.524;13.694;2023-02-02T14:05:24;3.63;;;1.00;;
22240;SDS011;11289;52.524;13.694;2023-02-02T14:07:54;2.65;;;0.88;;
22240;SDS011;11289;52.524;13.694;2023-02-02T14:13:14;1.77;;;0.77;;
22240;SDS011;11289;52.524;13.694;2023-02-02T14:16:02;2.00;;;0.90;;
22240;SDS011;11289;52.524;13.694;2023-02-02T14:23:58;5.95;;;1.00;;
22240;SDS011;11289;52.524;13.694;2023-02-02T14:26:46;4.13;;;1.08;;
22240;SDS011;11289;52.524;13.694;2023-02-02T14:34:31;3.15;;;0.90;;
22240;SDS011;11289;52.524;13.694;2023-02-02T14:47:48;4.97;;;1.40;;
22240;SDS011;11289;52.524;13.694;2023-02-02T14:50:15;1.00;;;0.80;;
22240;SDS011;11289;52.524;13.694;2023-02-02T14:55:48;2.85;;;1.20;;
22240;SDS011;11289;52.524;13.694;2023-02-02T14:58:27;2.57;;;0.90;;
22240;SDS011;11289;52.524;13.694;2023-02-02T15:01:21;3.20;;;1.17;;
22240;SDS011;11289;52.524;13.694;2023-02-02T15:06:49;5.50;;;1.10;;
22240;SDS011;11289;52.524;13.694;2023-02-02T15:14:30;5.15;;;1.20;;
22240;SDS011;11289;52.524;13.694;2023-02-02T15:17:02;6.50;;;2.00;;
22240;SDS011;11289;52.524;13.694;2023-02-02T15:19:33;6.63;;;2.13;;
22240;SDS011;11289;52.524;13.694;2023-02-02T15:22:12;3.10;;;1.70;;
22240;SDS011;11289;52.524;13.694;2023-02-02T15:24:50;6.90;;;1.70;;
22240;SDS011;11289;52.524;13.694;2023-02-02T15:27:17;7.30;;;1.65;;
22240;SDS011;11289;52.524;13.694;2023-02-02T15:29:45;5.90;;;1.52;;
22240;SDS011;11289;52.524;13.694;2023-02-02T15:32:18;3.45;;;1.30;;
22240;SDS011;11289;52.524;13.694;2023-02-02T15:34:49;3.50;;;1.50;;
22240;SDS011;11289;52.524;13.694;2023-02-02T15:37:36;6.93;;;2.30;;
22240;SDS011;11289;52.524;13.694;2023-02-02T15:40:27;5.13;;;1.83;;
22240;SDS011;11289;52.524;13.694;2023-02-02T15:42:56;6.28;;;2.00;;
22240;SDS011;11289;52.524;13.694;2023-02-02T15:48:04;5.00;;;2.35;;
22240;SDS011;11289;52.524;13.694;2023-02-02T15:50:34;5.75;;;2.92;;
22240;SDS011;11289;52.524;13.694;2023-02-02T15:53:00;6.90;;;2.30;;
22240;SDS011;11289;52.524;13.694;2023-02-02T15:55:30;5.32;;;2.38;;
22240;SDS011;11289;52.524;13.694;2023-02-02T15:57:55;5.60;;;1.77;;
22240;SDS011;11289;52.524;13.694;2023-02-02T16:00:26;4.05;;;1.40;;
22240;SDS011;11289;52.524;13.694;2023-02-02T16:07:59;3.72;;;2.80;;
22240;SDS011;11289;52.524;13.694;2023-02-02T16:10:25;6.22;;;4.40;;
22240;SDS011;11289;52.524;13.694;2023-02-02T16:12:51;8.50;;;4.97;;
22240;SDS011;11289;52.524;13.694;2023-02-02T16:15:25;5.88;;;4.53;;
22240;SDS011;11289;52.524;13.694;2023-02-02T16:17:56;8.55;;;4.85;;
22240;SDS011;11289;52.524;13.694;2023-02-02T16:20:24;8.32;;;5.03;;
22240;SDS011;11289;52.524;13.694;2023-02-02T16:22:50;6.63;;;3.90;;
22240;SDS011;11289;52.524;13.694;2023-02-02T16:25:18;4.45;;;3.83;;
22240;SDS011;11289;52.524;13.694;2023-02-02T16:27:46;6.13;;;4.07;;
22240;SDS011;11289;52.524;13.694;2023-02-02T16:30:21;8.63;;;3.92;;
22240;SDS011;11289;52.524;13.694;2023-02-02T16:32:50;12.43;;;5.18;;
22240;SDS011;11289;52.524;13.694;2023-02-02T16:35:28;14.07;;;8.18;;
22240;SDS011;11289;52.524;13.694;2023-02-02T16:40:36;13.23;;;7.28;;
22240;SDS011;11289;52.524;13.694;2023-02-02T16:43:24;11.77;;;6.85;;
22240;SDS011;11289;52.524;13.694;2023-02-02T16:48:32;8.45;;;5.60;;
22240;SDS011;11289;52.524;13.694;2023-02-02T16:53:45;9.82;;;4.88;;
22240;SDS011;11289;52.524;13.694;2023-02-02T16:56:25;8.25;;;4.72;;
22240;SDS011;11289;52.524;13.694;2023-02-02T16:58:52;8.43;;;4.90;;
22240;SDS011;11289;52.524;13.694;2023-02-02T17:01:22;7.60;;;4.30;;
22240;SDS011;11289;52.524;13.694;2023-02-02T17:03:56;9.95;;;4.63;;
22240;SDS011;11289;52.524;13.694;2023-02-02T17:06:30;8.27;;;4.50;;
22240;SDS011;11289;52.524;13.694;2023-02-02T17:09:00;6.03;;;3.95;;
22240;SDS011;11289;52.524;13.694;2023-02-02T17:11:38;8.30;;;4.28;;
22240;SDS011;11289;52.524;13.694;2023-02-02T17:14:17;12.65;;;4.43;;
22240;SDS011;11289;52.524;13.694;2023-02-02T17:16:43;8.43;;;4.03;;
22240;SDS011;11289;52.524;13.694;2023-02-02T17:19:08;6.72;;;3.55;;
22240;SDS011;11289;52.524;13.694;2023-02-02T17:21:34;7.28;;;3.88;;
22240;SDS011;11289;52.524;13.694;2023-02-02T17:23:59;7.55;;;3.70;;
22240;SDS011;11289;52.524;13.694;2023-02-02T17:26:25;8.73;;;3.22;;
22240;SDS011;11289;52.524;13.694;2023-02-02T17:28:53;10.88;;;4.93;;
22240;SDS011;11289;52.524;13.694;2023-02-02T17:31:20;11.52;;;4.38;;
22240;SDS011;11289;52.524;13.694;2023-02-02T17:33:45;6.60;;;3.58;;
22240;SDS011;11289;52.524;13.694;2023-02-02T17:36:11;7.93;;;3.92;;
22240;SDS011;11289;52.524;13.694;2023-02-02T17:38:37;6.50;;;4.60;;
22240;SDS011;11289;52.524;13.694;2023-02-02T17:41:03;9.25;;;4.78;;
22240;SDS011;11289;52.524;13.694;2023-02-02T17:43:29;12.93;;;5.10;;